Safi, Morocco
Current Conditions -  °F | °C
As of 1:00 PM on Thursday 30 Oct 2014 (Local Time) from GMMI Reporting Station
Few Clouds Few Clouds  
Wind Chill: 93°   Ceiling: Unl
Heat Index: 93°   Visibility: 5mi
Dew Point: 30°   Wind: 9mph
Humidity: 11%   Direction: 50°NE
Pressure: 29.91"   Gusts: NA
Location:  32.32°N, 9.24°W
Report Text: GMMI 301200Z 05008KT 8000 FEW020 34/M01 Q1013 NOSIG
Loading
Personal Weather Stations






























Interactive Weather Map
Tropical Storm Tracking
New forecast layout! Learn more

10-Day Weather Forecast

Advertisements
Track Severe Weather on mobile